createdAt,value
2023-05-20T00:00:17.052Z,101979.19
2023-05-20T00:02:43.412Z,101974.84
2023-05-20T00:05:09.814Z,101972.16
2023-05-20T00:07:36.115Z,101967.59
2023-05-20T00:10:04.144Z,101957.63
2023-05-20T00:12:31.605Z,101964.06
2023-05-20T00:14:57.900Z,101968.41
2023-05-20T00:17:24.181Z,101962.22
2023-05-20T00:19:50.524Z,101964.06
2023-05-20T00:22:18.895Z,101958.69
2023-05-20T00:24:55.113Z,101966.78
2023-05-20T00:27:21.404Z,101965.13
2023-05-20T00:29:51.538Z,101964.28
2023-05-20T00:32:17.838Z,101964.28
2023-05-20T00:34:49.539Z,101970.31
2023-05-20T00:37:15.833Z,101968.63
2023-05-20T00:39:52.070Z,101965.94
2023-05-20T00:42:24.526Z,101962.41
2023-05-20T00:44:52.657Z,101964.28
2023-05-20T00:47:19.048Z,101962.41
2023-05-20T00:49:50.555Z,101964.28
2023-05-20T00:52:20.652Z,101956.19
2023-05-20T00:54:51.607Z,101959.09
2023-05-20T00:57:17.892Z,101961.59
2023-05-20T00:59:44.931Z,101963.66
2023-05-20T01:02:11.333Z,101968.81
2023-05-20T01:04:37.649Z,101962.63
2023-05-20T01:07:03.910Z,101963.66
2023-05-20T01:09:30.212Z,101962.84
2023-05-20T01:11:56.507Z,101960.97
2023-05-20T01:14:24.489Z,101964.47
2023-05-20T01:16:50.747Z,101964.47
2023-05-20T01:19:17.175Z,101960.13
2023-05-20T01:21:43.702Z,101961.19
2023-05-20T01:24:13.451Z,101952.25
2023-05-20T01:26:39.976Z,101964.69
2023-05-20T01:29:06.266Z,101965.53
2023-05-20T01:31:32.624Z,101954.13
2023-05-20T01:34:02.913Z,101950.59
2023-05-20T01:36:30.275Z,101949.75
2023-05-20T01:38:56.629Z,101951.44
2023-05-20T01:41:23.166Z,101945.22
2023-05-20T01:43:49.485Z,101942.50
2023-05-20T01:46:21.600Z,101944.38
2023-05-20T01:48:47.868Z,101947.28
2023-05-20T01:51:15.176Z,101950.59
2023-05-20T01:53:41.414Z,101950.59
2023-05-20T01:56:14.657Z,101949.75
2023-05-20T01:58:43.598Z,101948.94
2023-05-20T02:01:12.187Z,101948.13
2023-05-20T02:03:38.430Z,101942.72
2023-05-20T02:06:05.917Z,101945.41
2023-05-20T02:08:32.193Z,101948.13
2023-05-20T02:10:58.453Z,101943.75
2023-05-20T02:13:27.839Z,101952.66
2023-05-20T02:15:56.966Z,101949.97
2023-05-20T02:18:23.388Z,101953.72
2023-05-20T02:20:49.634Z,101951.00
2023-05-20T02:23:15.977Z,101961.78
2023-05-20T02:25:42.343Z,101945.63
2023-05-20T02:28:08.608Z,101943.75
2023-05-20T02:30:37.171Z,101954.53
2023-05-20T02:33:05.819Z,101945.81
2023-05-20T02:35:33.712Z,101950.19
2023-05-20T02:38:04.677Z,101952.06
2023-05-20T02:40:30.954Z,101954.75
2023-05-20T02:42:57.252Z,101953.91
2023-05-20T02:45:25.057Z,101957.66
2023-05-20T02:47:51.369Z,101955.78
2023-05-20T02:50:17.805Z,101954.97
2023-05-20T02:52:46.762Z,101952.25
2023-05-20T02:55:12.991Z,101953.09
2023-05-20T02:57:39.313Z,101952.25
2023-05-20T03:00:09.059Z,101957.66
2023-05-20T03:02:37.436Z,101956.84
2023-05-20T03:05:03.705Z,101972.19
2023-05-20T03:07:32.422Z,101964.09
2023-05-20T03:09:58.705Z,101975.91
2023-05-20T03:12:25.819Z,101971.34
2023-05-20T03:14:52.066Z,101970.31
2023-05-20T03:17:21.966Z,101968.84
2023-05-20T03:19:52.861Z,101968.84
2023-05-20T03:22:24.225Z,101980.47
2023-05-20T03:24:50.545Z,101976.94
2023-05-20T03:27:16.798Z,101975.91
2023-05-20T03:29:43.078Z,101968.03
2023-05-20T03:32:12.599Z,101969.69
2023-05-20T03:34:38.861Z,101968.84
2023-05-20T03:37:10.167Z,101967.19
2023-05-20T03:39:42.768Z,101966.38
2023-05-20T03:42:09.061Z,101959.09
2023-05-20T03:44:35.335Z,101966.38
2023-05-20T03:47:01.733Z,101968.44
2023-05-20T03:49:28.112Z,101963.69
2023-05-20T03:51:54.481Z,101970.09
2023-05-20T03:54:20.843Z,101970.94
2023-05-20T03:56:48.810Z,101967.41
2023-05-20T03:59:15.415Z,101975.47
2023-05-20T04:01:41.853Z,101975.47
2023-05-20T04:04:09.437Z,101974.66
2023-05-20T04:06:41.016Z,101977.38
2023-05-20T04:09:07.488Z,101976.72
2023-05-20T04:11:33.898Z,101962.44
2023-05-20T04:14:00.169Z,101968.03
2023-05-20T04:16:31.300Z,101967.59
2023-05-20T04:18:59.408Z,101968.63
2023-05-20T04:21:30.869Z,101963.25
2023-05-20T04:23:57.307Z,101960.75
2023-05-20T04:26:28.644Z,101957.25
2023-05-20T04:28:59.302Z,101959.94
2023-05-20T04:31:29.407Z,101958.91
2023-05-20T04:33:55.819Z,101961.59
2023-05-20T04:36:22.217Z,101951.22
2023-05-20T04:38:49.969Z,101954.56
2023-05-20T04:41:21.299Z,101945.63
2023-05-20T04:43:47.624Z,101946.47
2023-05-20T04:46:21.891Z,101951.03
2023-05-20T04:48:48.145Z,101954.56
2023-05-20T04:51:14.601Z,101952.06
2023-05-20T04:53:40.864Z,101962.66
2023-05-20T04:56:10.341Z,101953.91
2023-05-20T04:58:36.620Z,101954.75
2023-05-20T05:01:03.727Z,101951.88
2023-05-20T05:03:30.050Z,101956.41
2023-05-20T05:05:58.798Z,101957.47
2023-05-20T05:08:30.729Z,101954.13
2023-05-20T05:10:57.034Z,101942.34
2023-05-20T05:13:23.463Z,101945.84
2023-05-20T05:15:49.707Z,101943.59
2023-05-20T05:18:16.065Z,101948.53
2023-05-20T05:20:42.390Z,101956.63
2023-05-20T05:23:08.667Z,101956.63
2023-05-20T05:25:37.667Z,101958.50
2023-05-20T05:28:04.351Z,101955.81
2023-05-20T05:30:30.704Z,101959.09
2023-05-20T05:32:57.198Z,101961.00
2023-05-20T05:35:23.482Z,101957.47
2023-05-20T05:37:49.758Z,101949.56
2023-05-20T05:40:20.916Z,101956.63
2023-05-20T05:42:51.635Z,101964.69
2023-05-20T05:45:17.889Z,101953.31
2023-05-20T05:47:48.303Z,101952.28
2023-05-20T05:50:14.745Z,101957.66
2023-05-20T05:52:42.070Z,101955.16
2023-05-20T05:55:08.366Z,101950.63
2023-05-20T05:57:38.847Z,101945.22
2023-05-20T06:00:09.578Z,101946.03
2023-05-20T06:02:36.981Z,101944.38
2023-05-20T06:05:03.626Z,101941.69
2023-05-20T06:07:29.906Z,101942.75
2023-05-20T06:09:56.168Z,101942.75
2023-05-20T06:12:22.435Z,101947.94
2023-05-20T06:14:51.339Z,101945.22
2023-05-20T06:17:17.746Z,101948.13
2023-05-20T06:19:45.600Z,101943.59
2023-05-20T06:22:11.876Z,101942.75
2023-05-20T06:24:38.145Z,101931.97
2023-05-20T06:27:10.406Z,101932.81
2023-05-20T06:29:38.833Z,101932.56
2023-05-20T06:32:05.091Z,101939.84
2023-05-20T06:34:34.280Z,101948.75
2023-05-20T06:37:00.590Z,101939.84
2023-05-20T06:39:26.862Z,101945.03
2023-05-20T06:41:54.400Z,101950.41
2023-05-20T06:44:20.662Z,101938.41
2023-05-20T06:46:54.172Z,101948.75
2023-05-20T06:49:23.982Z,101946.03
2023-05-20T06:51:50.315Z,101942.34
2023-05-20T06:54:16.552Z,101937.34
2023-05-20T06:56:46.528Z,101934.25
2023-05-20T06:59:16.065Z,101927.19
2023-05-20T07:01:42.584Z,101926.38
2023-05-20T07:04:08.921Z,101919.75
2023-05-20T07:06:38.154Z,101920.97
2023-05-20T07:09:04.434Z,101926.97
2023-05-20T07:11:34.548Z,101923.66
2023-05-20T07:14:04.569Z,101921.78
2023-05-20T07:16:30.943Z,101922.63
2023-05-20T07:18:59.571Z,101924.72
2023-05-20T07:21:25.909Z,101918.91
2023-05-20T07:23:52.281Z,101925.94
2023-05-20T07:26:19.474Z,101923.47
2023-05-20T07:28:46.380Z,101914.13
2023-05-20T07:31:12.661Z,101916.00
2023-05-20T07:33:38.957Z,101917.44
2023-05-20T07:36:10.979Z,101918.28
2023-05-20T07:38:38.552Z,101923.25
2023-05-20T07:41:05.934Z,101926.97
2023-05-20T07:43:32.198Z,101922.63
2023-05-20T07:45:58.501Z,101927.41
2023-05-20T07:48:28.570Z,101926.78
2023-05-20T07:50:54.824Z,101925.13
2023-05-20T07:53:21.521Z,101926.78
2023-05-20T07:55:47.776Z,101918.28
2023-05-20T07:58:16.803Z,101922.44
2023-05-20T08:00:46.649Z,101913.94
2023-05-20T08:03:13.169Z,101917.66
2023-05-20T08:05:42.579Z,101910.00
2023-05-20T08:08:08.838Z,101900.25
2023-05-20T08:10:39.181Z,101894.25
2023-05-20T08:13:05.438Z,101905.00
2023-05-20T08:15:33.905Z,101895.69
2023-05-20T08:18:00.588Z,101898.78
2023-05-20T08:20:27.148Z,101903.38
2023-05-20T08:22:53.457Z,101891.56
2023-05-20T08:25:21.001Z,101889.88
2023-05-20T08:27:47.273Z,101894.03
2023-05-20T08:30:13.541Z,101889.69
2023-05-20T08:32:41.156Z,101893.19
2023-05-20T08:35:09.652Z,101896.94
2023-05-20T08:37:35.978Z,101894.22
2023-05-20T08:40:07.798Z,101892.13
2023-05-20T08:42:38.250Z,101883.66
2023-05-20T08:45:04.521Z,101885.09
2023-05-20T08:47:33.877Z,101891.75
2023-05-20T08:50:02.996Z,101895.47
2023-05-20T08:52:29.285Z,101888.44
2023-05-20T08:54:55.623Z,101888.44
2023-05-20T08:57:21.872Z,101887.19
2023-05-20T08:59:48.145Z,101885.31
2023-05-20T09:02:14.502Z,101882.81
2023-05-20T09:04:45.557Z,101883.47
2023-05-20T09:07:17.137Z,101875.56
2023-05-20T09:09:46.812Z,101873.72
2023-05-20T09:12:16.508Z,101874.34
2023-05-20T09:14:45.138Z,101867.28
2023-05-20T09:17:11.399Z,101868.34
2023-05-20T09:19:38.693Z,101878.91
2023-05-20T09:22:07.705Z,101875.56
2023-05-20T09:24:34.105Z,101868.50
2023-05-20T09:27:01.825Z,101861.69
2023-05-20T09:29:28.081Z,101867.47
2023-05-20T09:31:54.394Z,101866.44
2023-05-20T09:34:20.744Z,101869.16
2023-05-20T09:36:46.990Z,101864.38
2023-05-20T09:39:13.234Z,101862.28
2023-05-20T09:41:39.539Z,101865.22
2023-05-20T09:44:05.853Z,101862.50
2023-05-20T09:46:32.216Z,101863.16
2023-05-20T09:49:06.582Z,101864.41
2023-05-20T09:51:32.882Z,101864.41
2023-05-20T09:53:59.269Z,101864.59
2023-05-20T09:56:25.558Z,101865.84
2023-05-20T09:58:51.850Z,101866.03
2023-05-20T10:01:18.186Z,101864.59
2023-05-20T10:03:47.154Z,101876.44
2023-05-20T10:06:13.699Z,101868.50
2023-05-20T10:08:41.120Z,101862.28
2023-05-20T10:11:07.510Z,101860.63
2023-05-20T10:13:33.760Z,101862.72
2023-05-20T10:16:00.234Z,101853.59
2023-05-20T10:18:26.577Z,101859.19
2023-05-20T10:23:41.326Z,101841.19
2023-05-20T10:26:07.585Z,101846.78
2023-05-20T10:28:33.935Z,101847.56
2023-05-20T10:31:00.627Z,101846.78
2023-05-20T10:33:28.828Z,101834.09
2023-05-20T10:35:58.929Z,101836.00
2023-05-20T10:38:25.186Z,101831.41
2023-05-20T10:40:51.479Z,101835.16
2023-05-20T10:43:17.761Z,101836.78
2023-05-20T10:45:47.176Z,101834.09
2023-05-20T10:48:13.460Z,101836.78
2023-05-20T10:50:39.833Z,101836.81
2023-05-20T10:53:07.000Z,101838.47
2023-05-20T10:55:35.906Z,101837.00
2023-05-20T10:58:02.283Z,101829.38
2023-05-20T11:00:31.178Z,101827.47
2023-05-20T11:02:57.502Z,101817.53
2023-05-20T11:05:28.482Z,101825.19
2023-05-20T11:07:54.814Z,101814.78
2023-05-20T11:10:23.778Z,101814.34
2023-05-20T11:12:50.087Z,101814.13
2023-05-20T11:15:16.522Z,101810.97
2023-05-20T11:17:48.393Z,101810.31
2023-05-20T11:20:14.737Z,101806.56
2023-05-20T11:22:43.301Z,101806.34
2023-05-20T11:25:10.975Z,101807.63
2023-05-20T11:27:42.878Z,101793.28
2023-05-20T11:30:09.186Z,101791.25
2023-05-20T11:32:41.442Z,101801.84
2023-05-20T11:35:07.722Z,101787.94
2023-05-20T11:37:34.133Z,101784.44
2023-05-20T11:40:00.481Z,101790.03
2023-05-20T11:42:28.723Z,101788.59
2023-05-20T11:45:00.637Z,101784.25
2023-05-20T11:47:30.176Z,101778.22
2023-05-20T11:49:56.500Z,101781.97
2023-05-20T11:52:22.800Z,101768.72
2023-05-20T11:54:49.070Z,101771.41
2023-05-20T11:57:15.427Z,101779.69
2023-05-20T11:59:41.711Z,101773.25
2023-05-20T12:02:15.895Z,101768.91
2023-05-20T12:04:42.367Z,101769.13
2023-05-20T12:07:08.648Z,101763.53
2023-05-20T12:09:34.991Z,101757.09
2023-05-20T12:12:01.270Z,101749.41
2023-05-20T12:14:27.594Z,101741.28
2023-05-20T12:16:54.047Z,101745.59
2023-05-20T12:19:25.654Z,101730.22
2023-05-20T12:21:52.017Z,101738.06
2023-05-20T12:24:18.267Z,101729.06
2023-05-20T12:26:47.187Z,101732.56
2023-05-20T12:29:13.466Z,101731.72
2023-05-20T12:31:43.100Z,101721.72
2023-05-20T12:34:09.705Z,101716.25
2023-05-20T12:36:36.062Z,101717.84
2023-05-20T12:39:07.561Z,101723.19
2023-05-20T12:41:34.339Z,101711.53
2023-05-20T12:44:02.040Z,101709.78
2023-05-20T12:46:30.485Z,101705.59
2023-05-20T12:49:03.034Z,101712.00
2023-05-20T12:51:29.309Z,101709.66
2023-05-20T12:53:55.588Z,101709.44
2023-05-20T12:56:24.128Z,101706.75
2023-05-20T12:58:50.668Z,101695.13
2023-05-20T13:01:16.949Z,101695.34
2023-05-20T13:03:44.278Z,101692.66
2023-05-20T13:06:15.182Z,101683.94
2023-05-20T13:08:41.477Z,101683.72
2023-05-20T13:11:12.424Z,101682.91
2023-05-20T13:13:39.443Z,101683.50
2023-05-20T13:16:08.390Z,101676.44
2023-05-20T13:18:34.720Z,101672.47
2023-05-20T13:21:01.130Z,101678.47
2023-05-20T13:23:32.242Z,101666.84
2023-05-20T13:26:03.800Z,101670.13
2023-05-20T13:28:30.086Z,101669.91
2023-05-20T13:30:56.394Z,101673.25
2023-05-20T13:33:25.779Z,101675.69
2023-05-20T13:35:52.054Z,101660.09
2023-05-20T13:38:18.315Z,101655.28
2023-05-20T13:40:44.574Z,101652.59
2023-05-20T13:43:10.925Z,101660.25
2023-05-20T13:45:37.274Z,101668.13
2023-05-20T13:48:03.549Z,101654.63
2023-05-20T13:50:29.900Z,101649.00
2023-05-20T13:52:56.157Z,101655.22
2023-05-20T13:55:24.616Z,101647.94
2023-05-20T13:57:51.961Z,101643.81
2023-05-20T14:00:18.426Z,101637.81
2023-05-20T14:02:44.845Z,101633.69
2023-05-20T14:05:13.338Z,101631.19
2023-05-20T14:07:42.408Z,101633.09
2023-05-20T14:10:12.130Z,101629.78
2023-05-20T14:12:39.428Z,101640.84
2023-05-20T14:15:05.667Z,101635.66
2023-05-20T14:17:32.047Z,101633.97
2023-05-20T14:20:02.614Z,101613.66
2023-05-20T14:22:29.448Z,101619.03
2023-05-20T14:24:55.689Z,101618.59
2023-05-20T14:27:22.015Z,101617.78
2023-05-20T14:29:51.891Z,101613.88
2023-05-20T14:32:19.313Z,101604.97
2023-05-20T14:34:46.805Z,101606.81
2023-05-20T14:37:13.137Z,101597.09
2023-05-20T14:39:44.042Z,101602.47
2023-05-20T14:42:17.199Z,101590.03
2023-05-20T14:44:43.469Z,101588.75
2023-05-20T14:47:15.663Z,101597.44
2023-05-20T14:49:45.993Z,101594.09
2023-05-20T14:52:12.249Z,101588.69
2023-05-20T14:54:38.625Z,101583.63
2023-05-20T14:57:07.111Z,101584.47
2023-05-20T14:59:33.440Z,101587.53
2023-05-20T15:01:59.802Z,101581.25
2023-05-20T15:04:26.099Z,101586.41
2023-05-20T15:06:52.413Z,101586.41
2023-05-20T15:09:18.694Z,101589.09
2023-05-20T15:11:47.887Z,101585.38
2023-05-20T15:14:14.148Z,101578.06
2023-05-20T15:16:41.947Z,101575.38
2023-05-20T15:19:14.756Z,101571.88
2023-05-20T15:21:41.022Z,101563.53
2023-05-20T15:24:10.380Z,101573.50
2023-05-20T15:26:36.628Z,101569.97
2023-05-20T15:29:05.419Z,101571.88
2023-05-20T15:31:31.678Z,101565.63
2023-05-20T15:34:00.355Z,101564.78
2023-05-20T15:36:27.091Z,101562.91
2023-05-20T15:38:53.370Z,101565.03
2023-05-20T15:41:19.720Z,101562.34
2023-05-20T15:43:45.996Z,101562.56
2023-05-20T15:46:12.323Z,101563.38
2023-05-20T15:48:38.645Z,101568.78
2023-05-20T15:51:06.378Z,101562.56
2023-05-20T15:53:32.661Z,101559.25
2023-05-20T15:55:58.918Z,101563.63
2023-05-20T15:58:25.378Z,101548.44
2023-05-20T16:00:51.648Z,101540.56
2023-05-20T16:03:17.977Z,101531.66
2023-05-20T16:05:48.235Z,101540.81
2023-05-20T16:08:14.508Z,101537.50
2023-05-20T16:10:47.109Z,101535.63
2023-05-20T16:13:16.499Z,101544.53
2023-05-20T16:15:42.896Z,101530.47
2023-05-20T16:18:15.033Z,101526.91
2023-05-20T16:20:43.569Z,101510.94
2023-05-20T16:23:09.801Z,101517.41
2023-05-20T16:25:36.075Z,101512.84
2023-05-20T16:28:05.609Z,101520.94
2023-05-20T16:30:35.885Z,101517.41
2023-05-20T16:33:02.485Z,101517.63
2023-05-20T16:35:33.967Z,101522.22
2023-05-20T16:38:03.852Z,101515.16
2023-05-20T16:40:30.076Z,101515.97
2023-05-20T16:42:57.026Z,101517.03
2023-05-20T16:45:28.357Z,101518.91
2023-05-20T16:47:54.705Z,101519.97
2023-05-20T16:50:23.279Z,101502.13
2023-05-20T16:52:49.553Z,101511.25
2023-05-20T16:55:17.204Z,101523.09
2023-05-20T16:57:43.480Z,101524.16
2023-05-20T17:00:09.739Z,101520.63
2023-05-20T17:02:36.172Z,101514.44
2023-05-20T17:05:02.567Z,101515.22
2023-05-20T17:07:29.708Z,101516.50
2023-05-20T17:09:55.981Z,101522.13
2023-05-20T17:12:22.252Z,101516.75
2023-05-20T17:14:48.554Z,101514.28
2023-05-20T17:17:15.609Z,101508.88
2023-05-20T17:19:41.909Z,101518.84
2023-05-20T17:22:11.432Z,101517.00
2023-05-20T17:24:37.678Z,101514.50
2023-05-20T17:27:04.061Z,101517.66
2023-05-20T17:29:30.317Z,101513.91
2023-05-20T17:31:56.690Z,101508.72
2023-05-20T17:34:22.991Z,101510.38
2023-05-20T17:36:49.242Z,101509.56
2023-05-20T17:39:15.777Z,101509.78
2023-05-20T17:41:43.579Z,101509.78
2023-05-20T17:44:09.938Z,101516.25
2023-05-20T17:46:36.258Z,101509.19
2023-05-20T17:49:02.570Z,101501.09
2023-05-20T17:51:28.833Z,101502.97
2023-05-20T17:53:55.268Z,101510.22
2023-05-20T17:56:21.498Z,101498.63
2023-05-20T17:58:50.264Z,101512.69
2023-05-20T18:01:16.579Z,101520.22
2023-05-20T18:03:43.016Z,101515.63
2023-05-20T18:06:09.799Z,101509.63
2023-05-20T18:08:36.046Z,101510.69
2023-05-20T18:11:02.427Z,101514.19
2023-05-20T18:13:28.717Z,101515.88
2023-05-20T18:15:56.890Z,101507.16
2023-05-20T18:18:23.284Z,101511.50
2023-05-20T18:20:49.668Z,101511.75
2023-05-20T18:23:16.518Z,101497.41
2023-05-20T18:25:42.991Z,101505.53
2023-05-20T18:28:09.302Z,101512.78
2023-05-20T18:30:35.881Z,101512.78
2023-05-20T18:33:02.525Z,101513.84
2023-05-20T18:35:28.878Z,101514.69
2023-05-20T18:37:58.446Z,101518.19
2023-05-20T18:40:24.796Z,101518.41
2023-05-20T18:42:51.075Z,101514.91
2023-05-20T18:45:18.118Z,101517.59
2023-05-20T18:47:44.413Z,101523.00
2023-05-20T18:50:11.012Z,101529.19
2023-05-20T18:52:37.283Z,101528.63
2023-05-20T18:55:04.889Z,101534.00
2023-05-20T18:57:31.153Z,101526.75
2023-05-20T18:59:57.964Z,101530.47
2023-05-20T19:02:25.317Z,101531.31
2023-05-20T19:04:52.331Z,101526.97
2023-05-20T19:07:18.897Z,101531.53
2023-05-20T19:09:45.143Z,101526.34
2023-05-20T19:12:11.493Z,101521.78
2023-05-20T19:14:39.187Z,101530.94
2023-05-20T19:17:05.556Z,101530.94
2023-05-20T19:19:31.894Z,101529.28
2023-05-20T19:21:58.296Z,101524.94
2023-05-20T19:24:24.557Z,101520.59
2023-05-20T19:26:50.826Z,101524.13
2023-05-20T19:29:17.077Z,101525.16
2023-05-20T19:31:44.453Z,101525.16
2023-05-20T19:34:11.910Z,101526.84
2023-05-20T19:36:38.185Z,101529.75
2023-05-20T19:39:04.462Z,101535.16
2023-05-20T19:41:30.752Z,101525.38
2023-05-20T19:43:58.068Z,101523.50
2023-05-20T19:46:24.434Z,101526.44
2023-05-20T19:48:50.722Z,101530.19
2023-05-20T19:51:17.163Z,101528.31
2023-05-20T19:53:44.742Z,101531.84
2023-05-20T19:56:11.094Z,101532.06
2023-05-20T19:58:44.695Z,101534.75
2023-05-20T20:01:10.963Z,101535.59
2023-05-20T20:03:41.012Z,101534.75
2023-05-20T20:06:07.271Z,101537.69
2023-05-20T20:08:33.615Z,101537.69
2023-05-20T20:11:05.150Z,101533.31
2023-05-20T20:13:31.427Z,101526.91
2023-05-20T20:15:58.232Z,101533.53
2023-05-20T20:18:24.510Z,101529.81
2023-05-20T20:20:51.752Z,101533.53
2023-05-20T20:23:18.059Z,101534.38
2023-05-20T20:25:46.287Z,101530.03
2023-05-20T20:28:13.695Z,101525.44
2023-05-20T20:30:39.931Z,101525.44
2023-05-20T20:33:10.246Z,101524.66
2023-05-20T20:35:36.738Z,101530.84
2023-05-20T20:38:03.178Z,101526.50
2023-05-20T20:40:34.441Z,101514.06
2023-05-20T20:43:03.787Z,101514.91
2023-05-20T20:45:30.030Z,101526.50
2023-05-20T20:47:56.370Z,101524.03
2023-05-20T20:50:22.670Z,101525.69
2023-05-20T20:52:49.261Z,101523.00
2023-05-20T20:55:19.989Z,101519.47
2023-05-20T20:57:46.263Z,101531.09
2023-05-20T21:00:15.837Z,101524.03
2023-05-20T21:02:42.242Z,101524.88
2023-05-20T21:05:08.529Z,101523.22
2023-05-20T21:07:34.783Z,101520.31
2023-05-20T21:10:05.873Z,101525.69
2023-05-20T21:12:34.039Z,101515.94
2023-05-20T21:15:03.999Z,101512.44
2023-05-20T21:17:31.794Z,101513.22
2023-05-20T21:19:58.213Z,101503.50
2023-05-20T21:22:24.579Z,101507.03
2023-05-20T21:24:50.825Z,101505.97
2023-05-20T21:27:17.074Z,101505.97
2023-05-20T21:29:43.326Z,101504.56
2023-05-20T21:32:10.571Z,101492.91
2023-05-20T21:34:41.795Z,101496.47
2023-05-20T21:37:08.063Z,101491.06
2023-05-20T21:39:35.788Z,101494.34
2023-05-20T21:42:02.061Z,101488.38
2023-05-20T21:44:31.089Z,101492.47
2023-05-20T21:46:57.356Z,101493.31
2023-05-20T21:49:24.250Z,101490.38
2023-05-20T21:51:50.511Z,101485.81
2023-05-20T21:54:16.886Z,101484.97
2023-05-20T21:56:48.245Z,101486.88
2023-05-20T21:59:18.406Z,101485.81
2023-05-20T22:01:44.788Z,101477.50
2023-05-20T22:04:13.416Z,101475.63
2023-05-20T22:06:39.764Z,101472.94
2023-05-20T22:09:06.073Z,101475.84
2023-05-20T22:11:32.335Z,101473.94
2023-05-20T22:14:01.446Z,101471.25
2023-05-20T22:16:27.780Z,101475.00
2023-05-20T22:18:54.187Z,101459.66
2023-05-20T22:21:20.513Z,101460.47
2023-05-20T22:23:47.865Z,101461.53
2023-05-20T22:26:15.948Z,101454.25
2023-05-20T22:28:43.463Z,101449.66
2023-05-20T22:31:09.759Z,101452.38
2023-05-20T22:33:36.085Z,101453.19
2023-05-20T22:36:02.335Z,101448.88
2023-05-20T22:38:28.574Z,101451.56
2023-05-20T22:40:54.882Z,101434.53
2023-05-20T22:43:23.202Z,101442.63
2023-05-20T22:45:49.546Z,101441.78
2023-05-20T22:48:19.986Z,101432.91
2023-05-20T22:50:46.351Z,101435.38
2023-05-20T22:53:16.539Z,101430.19
2023-05-20T22:55:44.030Z,101431.84
2023-05-20T22:58:14.884Z,101431.00
2023-05-20T23:00:41.162Z,101423.16
2023-05-20T23:03:07.559Z,101424.78
2023-05-20T23:05:34.080Z,101424.78
2023-05-20T23:08:00.884Z,101423.16
2023-05-20T23:10:27.134Z,101419.63
2023-05-20T23:12:54.621Z,101419.63
2023-05-20T23:15:22.733Z,101419.41
2023-05-20T23:17:51.403Z,101416.09
2023-05-20T23:20:21.109Z,101417.38
2023-05-20T23:22:47.376Z,101417.75
2023-05-20T23:25:13.792Z,101416.94
2023-05-20T23:27:50.106Z,101416.94
2023-05-20T23:30:17.720Z,101416.09
2023-05-20T23:32:44.123Z,101410.69
2023-05-20T23:35:11.178Z,101409.66
2023-05-20T23:37:38.014Z,101416.09
2023-05-20T23:40:04.272Z,101416.09
2023-05-20T23:42:33.889Z,101416.31
2023-05-20T23:45:01.862Z,101416.09
2023-05-20T23:47:35.885Z,101406.34
2023-05-20T23:50:04.126Z,101408.22
2023-05-20T23:52:30.592Z,101400.97
2023-05-20T23:54:56.840Z,101401.41
2023-05-20T23:57:26.533Z,101397.41
2023-05-20T23:59:52.774Z,101394.72
